Springer, OK

6:23 PM CDT on September 04, 2015 (GMT -0500)
Pauls Valley Municipal | | Change Station
CLOSE
Current Station
Airport
Location: Pauls Valley,
Elevation: 968 ft
Nearby Weather Stations

Elev 968 ft 34.71 °N, 97.22 °W | Updated 8 minutes ago

Partly Cloudy
Partly Cloudy
93 °F
Feels Like 96 °F
N
7
Wind Variable Wind from SE

Today
High -- | Low -- °F
--% Chance of Precip.
Yesterday
High -- | Low -- °F
Precip. -- in
7:03 AM 7:50 PM
Waning Gibbous, 55% visible
Pressure 29.90 in
Visibility 10.0 miles
Clouds Clear
Heat Index 96 °F
Dew Point 66 °F
Humidity 42%
Rainfall 0.00 in
Snow Depth Not available.
UV 1 out of 12
Pollen 10.40 out of 12
Air Quality Not available.
Flu Activity Not available.
METAR KPVJ 042315Z AUTO 14006KT 10SM CLR 34/19 A2990 RMK AO2 T03370191
Pressure 29.90 in
Visibility 10.0 miles
Clouds Clear
Heat Index 96 °F
Dew Point 66 °F
Humidity 42%
Rainfall 0.00 in
Snow Depth Not available.
UV 1 out of 12
Pollen 10.40 out of 12
Air Quality Not available.
Flu Activity Not available.
METAR KPVJ 042315Z AUTO 14006KT 10SM CLR 34/19 A2990 RMK AO2 T03370191

10-Day Weather Forecast

×

Almanac

Astronomy

Sep. 04, 2015 Rise Set
Actual Time
Civil Twilight
Nautical Twilight
Astronomical Twilight
Moon
Length of Visible Light
Length of Day
Tomorrow will be .
, % of the Moon is Illuminated

Today's Extremes

State Highs State Lows

Community

WunderPhotos

Upload Photos

1,852,332 photos uploaded!

WunderBlogs® & News

Nearby

Air Quality

  Air Quality AQ Index Pollutant
Not available.

Snow Depth

Station Depth Elevation

Earthquake Activity

City Distance Mag. Time & Date
Minimum magnitude displayed is 2.5.

Coastal Water Temperatures

Place Temperature

Stations

Nearby Weather Stations

Station Location Temp. Windchill Dew Point Humidity Wind Precip. Elev Updated Type